createdAt,value
2023-08-27T00:00:27.661Z,0.00
2023-08-27T00:01:21.468Z,0.00
2023-08-27T00:02:21.443Z,0.00
2023-08-27T00:03:21.506Z,0.00
2023-08-27T00:04:21.467Z,0.00
2023-08-27T00:05:21.412Z,0.00
2023-08-27T00:06:27.716Z,0.00
2023-08-27T00:07:21.325Z,0.00
2023-08-27T00:08:21.360Z,0.00
2023-08-27T00:09:21.309Z,0.00
2023-08-27T00:10:21.268Z,0.00
2023-08-27T00:11:27.587Z,0.00
2023-08-27T00:12:21.312Z,0.00
2023-08-27T00:13:21.254Z,0.00
2023-08-27T00:14:21.252Z,0.00
2023-08-27T00:15:21.312Z,0.00
2023-08-27T00:16:21.265Z,0.00
2023-08-27T00:17:27.452Z,0.00
2023-08-27T00:18:21.239Z,0.00
2023-08-27T00:19:21.237Z,0.00
2023-08-27T00:20:21.154Z,0.00
2023-08-27T00:21:21.221Z,0.00
2023-08-27T00:22:27.408Z,0.00
2023-08-27T00:23:21.122Z,0.00
2023-08-27T00:24:21.139Z,0.00
2023-08-27T00:25:21.083Z,0.00
2023-08-27T00:26:21.196Z,0.00
2023-08-27T00:27:21.782Z,0.00
2023-08-27T00:28:27.345Z,0.00
2023-08-27T00:29:21.027Z,0.00
2023-08-27T00:30:21.049Z,0.00
2023-08-27T00:31:21.047Z,0.00
2023-08-27T00:32:25.975Z,0.00
2023-08-27T00:33:28.822Z,0.00
2023-08-27T00:34:20.999Z,0.00
2023-08-27T00:35:20.979Z,0.00
2023-08-27T00:36:20.977Z,0.00
2023-08-27T00:37:20.965Z,0.00
2023-08-27T00:38:27.190Z,0.00
2023-08-27T00:39:20.968Z,0.00
2023-08-27T00:40:20.908Z,0.00
2023-08-27T00:41:20.915Z,0.00
2023-08-27T00:42:20.915Z,0.00
2023-08-27T00:43:20.959Z,0.00
2023-08-27T00:44:27.129Z,0.00
2023-08-27T00:45:20.860Z,0.00
2023-08-27T00:46:20.820Z,0.00
2023-08-27T00:47:20.892Z,0.00
2023-08-27T00:48:20.788Z,0.00
2023-08-27T00:49:27.041Z,0.00
2023-08-27T00:50:20.796Z,0.00
2023-08-27T00:51:20.743Z,0.00
2023-08-27T00:52:20.849Z,0.00
2023-08-27T00:53:20.892Z,0.00
2023-08-27T00:54:20.738Z,0.00
2023-08-27T00:55:26.966Z,0.00
2023-08-27T00:56:20.733Z,0.00
2023-08-27T00:57:20.709Z,0.00
2023-08-27T00:58:20.715Z,0.00
2023-08-27T00:59:20.652Z,0.00
2023-08-27T01:00:20.661Z,0.00
2023-08-27T01:01:26.869Z,0.00
2023-08-27T01:02:20.690Z,0.00
2023-08-27T01:03:20.656Z,0.00
2023-08-27T01:04:20.579Z,0.00
2023-08-27T01:05:20.622Z,0.00
2023-08-27T01:06:26.886Z,0.00
2023-08-27T01:07:20.587Z,0.00
2023-08-27T01:08:20.580Z,0.00
2023-08-27T01:09:20.563Z,0.00
2023-08-27T01:10:20.526Z,0.00
2023-08-27T01:11:20.535Z,0.00
2023-08-27T01:12:26.847Z,0.00
2023-08-27T01:13:20.509Z,0.00
2023-08-27T01:14:20.528Z,0.00
2023-08-27T01:15:20.479Z,0.00
2023-08-27T01:16:20.446Z,0.00
2023-08-27T01:17:26.936Z,0.00
2023-08-27T01:18:20.486Z,0.00
2023-08-27T01:19:20.458Z,0.00
2023-08-27T01:20:20.418Z,0.00
2023-08-27T01:21:20.408Z,0.00
2023-08-27T01:22:26.627Z,0.00
2023-08-27T01:23:20.352Z,0.00
2023-08-27T01:24:20.351Z,0.00
2023-08-27T01:25:20.334Z,0.00
2023-08-27T01:26:20.350Z,0.00
2023-08-27T01:27:26.546Z,0.00
2023-08-27T01:28:20.318Z,0.00
2023-08-27T01:29:20.305Z,0.00
2023-08-27T01:30:20.284Z,0.00
2023-08-27T01:31:20.417Z,0.00
2023-08-27T01:32:20.270Z,0.00
2023-08-27T01:33:26.484Z,0.00
2023-08-27T01:34:20.237Z,0.00
2023-08-27T01:35:20.225Z,0.00
2023-08-27T01:36:20.395Z,0.00
2023-08-27T01:37:20.196Z,0.00
2023-08-27T01:38:20.210Z,0.00
2023-08-27T01:39:26.413Z,0.00
2023-08-27T01:40:20.168Z,0.00
2023-08-27T01:41:20.193Z,0.00
2023-08-27T01:42:20.125Z,0.00
2023-08-27T01:43:20.161Z,0.00
2023-08-27T01:44:20.124Z,0.00
2023-08-27T01:45:26.378Z,0.00
2023-08-27T01:46:20.138Z,0.00
2023-08-27T01:47:20.051Z,0.00
2023-08-27T01:48:20.037Z,0.00
2023-08-27T01:49:20.025Z,0.00
2023-08-27T01:50:20.040Z,0.00
2023-08-27T01:51:26.488Z,0.00
2023-08-27T01:52:19.978Z,0.00
2023-08-27T01:53:19.963Z,0.00
2023-08-27T01:54:19.957Z,0.00
2023-08-27T01:55:19.989Z,0.00
2023-08-27T01:56:19.987Z,0.00
2023-08-27T01:57:26.300Z,0.00
2023-08-27T01:58:19.923Z,0.00
2023-08-27T01:59:19.892Z,0.00
2023-08-27T02:00:19.972Z,0.00
2023-08-27T02:01:19.996Z,0.00
2023-08-27T02:02:19.985Z,0.00
2023-08-27T02:03:26.315Z,0.00
2023-08-27T02:04:19.953Z,0.00
2023-08-27T02:05:19.890Z,0.00
2023-08-27T02:06:19.813Z,0.00
2023-08-27T02:07:19.835Z,0.00
2023-08-27T02:08:19.777Z,0.00
2023-08-27T02:09:26.050Z,0.00
2023-08-27T02:10:19.815Z,0.00
2023-08-27T02:11:19.716Z,0.00
2023-08-27T02:12:19.778Z,0.00
2023-08-27T02:13:19.735Z,0.00
2023-08-27T02:14:26.054Z,0.00
2023-08-27T02:15:19.701Z,0.00
2023-08-27T02:16:19.709Z,0.00
2023-08-27T02:17:19.767Z,0.00
2023-08-27T02:18:19.749Z,0.00
2023-08-27T02:19:25.936Z,0.00
2023-08-27T02:20:19.630Z,0.00
2023-08-27T02:21:19.637Z,0.00
2023-08-27T02:22:19.646Z,0.00
2023-08-27T02:23:19.568Z,0.00
2023-08-27T02:24:19.594Z,0.00
2023-08-27T02:25:25.868Z,0.00
2023-08-27T02:26:19.555Z,0.00
2023-08-27T02:27:19.596Z,0.00
2023-08-27T02:28:19.577Z,0.00
2023-08-27T02:29:19.517Z,0.00
2023-08-27T02:30:19.506Z,0.00
2023-08-27T02:31:25.752Z,0.00
2023-08-27T02:32:19.488Z,0.00
2023-08-27T02:33:19.465Z,0.00
2023-08-27T02:34:19.472Z,0.00
2023-08-27T02:35:19.467Z,0.00
2023-08-27T02:36:19.440Z,0.00
2023-08-27T02:37:25.750Z,0.00
2023-08-27T02:38:19.445Z,0.00
2023-08-27T02:39:19.412Z,0.00
2023-08-27T02:40:19.413Z,0.00
2023-08-27T02:41:19.372Z,0.00
2023-08-27T02:42:25.705Z,0.00
2023-08-27T02:43:19.386Z,0.00
2023-08-27T02:44:19.347Z,0.00
2023-08-27T02:45:19.301Z,0.00
2023-08-27T02:46:19.331Z,0.00
2023-08-27T02:47:19.335Z,0.00
2023-08-27T02:48:25.558Z,0.00
2023-08-27T02:49:19.266Z,0.00
2023-08-27T02:50:19.301Z,0.00
2023-08-27T02:51:19.254Z,0.00
2023-08-27T02:52:19.216Z,0.00
2023-08-27T02:53:19.214Z,0.00
2023-08-27T02:54:25.461Z,0.00
2023-08-27T02:55:19.208Z,0.00
2023-08-27T02:56:19.182Z,0.00
2023-08-27T02:57:19.257Z,0.00
2023-08-27T02:58:19.129Z,0.00
2023-08-27T02:59:25.413Z,0.00
2023-08-27T03:00:19.167Z,0.00
2023-08-27T03:01:19.145Z,0.00
2023-08-27T03:02:19.115Z,0.00
2023-08-27T03:03:19.213Z,0.00
2023-08-27T03:04:19.137Z,0.00
2023-08-27T03:05:25.434Z,0.00
2023-08-27T03:06:19.072Z,0.00
2023-08-27T03:07:19.067Z,0.00
2023-08-27T03:08:19.044Z,0.00
2023-08-27T03:09:19.053Z,0.00
2023-08-27T03:10:25.275Z,0.00
2023-08-27T03:11:18.990Z,0.00
2023-08-27T03:12:18.971Z,0.00
2023-08-27T03:13:18.982Z,0.00
2023-08-27T03:14:18.973Z,0.00
2023-08-27T03:15:25.163Z,0.00
2023-08-27T03:16:19.033Z,0.00
2023-08-27T03:17:18.895Z,0.00
2023-08-27T03:18:19.021Z,0.00
2023-08-27T03:19:18.908Z,0.00
2023-08-27T03:20:25.122Z,0.00
2023-08-27T03:21:18.884Z,0.00
2023-08-27T03:22:18.851Z,0.00
2023-08-27T03:23:18.875Z,0.00
2023-08-27T03:24:18.865Z,0.00
2023-08-27T03:25:25.054Z,0.00
2023-08-27T03:26:18.827Z,0.00
2023-08-27T03:27:18.751Z,0.00
2023-08-27T03:28:18.840Z,0.00
2023-08-27T03:29:18.785Z,0.00
2023-08-27T03:30:18.746Z,0.00
2023-08-27T03:31:25.012Z,0.00
2023-08-27T03:32:18.734Z,0.00
2023-08-27T03:33:18.722Z,0.00
2023-08-27T03:34:18.725Z,0.00
2023-08-27T03:35:18.653Z,0.00
2023-08-27T03:36:18.719Z,0.00
2023-08-27T03:37:24.946Z,0.00
2023-08-27T03:38:18.683Z,0.00
2023-08-27T03:39:18.729Z,0.00
2023-08-27T03:40:18.616Z,0.00
2023-08-27T03:41:18.645Z,0.00
2023-08-27T03:42:18.610Z,0.00
2023-08-27T03:43:24.892Z,0.00
2023-08-27T03:44:18.575Z,0.00
2023-08-27T03:45:18.585Z,0.00
2023-08-27T03:46:18.549Z,4.00
2023-08-27T03:47:18.562Z,4.00
2023-08-27T03:48:18.574Z,4.00
2023-08-27T03:49:24.877Z,0.00
2023-08-27T03:50:18.482Z,4.00
2023-08-27T03:51:18.469Z,4.00
2023-08-27T03:52:18.465Z,4.00
2023-08-27T03:53:18.496Z,4.00
2023-08-27T03:54:18.475Z,8.00
2023-08-27T03:55:24.719Z,8.00
2023-08-27T03:56:18.426Z,8.00
2023-08-27T03:57:18.411Z,12.00
2023-08-27T03:58:18.381Z,12.00
2023-08-27T03:59:18.362Z,12.00
2023-08-27T04:00:18.420Z,12.00
2023-08-27T04:01:24.628Z,12.00
2023-08-27T04:02:18.328Z,16.00
2023-08-27T04:03:18.446Z,20.00
2023-08-27T04:04:18.357Z,20.00
2023-08-27T04:05:18.339Z,24.00
2023-08-27T04:06:24.557Z,28.00
2023-08-27T04:07:18.310Z,32.00
2023-08-27T04:08:18.254Z,28.00
2023-08-27T04:09:18.306Z,32.00
2023-08-27T04:10:18.241Z,36.00
2023-08-27T04:11:24.467Z,40.00
2023-08-27T04:12:18.234Z,44.00
2023-08-27T04:13:18.220Z,48.00
2023-08-27T04:14:18.189Z,48.00
2023-08-27T04:15:18.180Z,52.00
2023-08-27T04:16:24.450Z,52.00
2023-08-27T04:17:18.138Z,60.00
2023-08-27T04:18:18.141Z,64.00
2023-08-27T04:19:18.180Z,72.00
2023-08-27T04:20:18.168Z,76.00
2023-08-27T04:21:18.122Z,88.00
2023-08-27T04:22:24.339Z,96.00
2023-08-27T04:23:18.093Z,92.00
2023-08-27T04:24:18.100Z,96.00
2023-08-27T04:25:18.057Z,96.00
2023-08-27T04:26:18.058Z,100.00
2023-08-27T04:27:24.355Z,96.00
2023-08-27T04:28:18.049Z,96.00
2023-08-27T04:29:18.021Z,100.00
2023-08-27T04:30:18.018Z,104.00
2023-08-27T04:31:18.014Z,112.00
2023-08-27T04:32:17.950Z,124.00
2023-08-27T04:33:24.209Z,132.00
2023-08-27T04:34:18.022Z,144.00
2023-08-27T04:35:17.989Z,156.00
2023-08-27T04:36:17.905Z,172.00
2023-08-27T04:37:17.898Z,188.00
2023-08-27T04:38:17.925Z,208.00
2023-08-27T04:39:24.100Z,216.00
2023-08-27T04:40:17.916Z,224.00
2023-08-27T04:41:17.905Z,244.00
2023-08-27T04:42:17.939Z,272.00
2023-08-27T04:43:17.845Z,308.00
2023-08-27T04:44:17.849Z,336.00
2023-08-27T04:45:24.085Z,376.00
2023-08-27T04:46:17.775Z,416.00
2023-08-27T04:47:17.797Z,464.00
2023-08-27T04:48:17.805Z,492.00
2023-08-27T04:49:17.763Z,496.00
2023-08-27T04:50:23.993Z,500.00
2023-08-27T04:51:17.752Z,512.00
2023-08-27T04:52:31.350Z,520.00
2023-08-27T04:53:19.238Z,472.00
2023-08-27T04:54:17.696Z,424.00
2023-08-27T04:55:17.711Z,388.00
2023-08-27T04:56:23.955Z,364.00
2023-08-27T04:57:17.706Z,340.00
2023-08-27T04:58:17.604Z,324.00
2023-08-27T04:59:18.103Z,316.00
2023-08-27T05:00:17.635Z,308.00
2023-08-27T05:01:23.890Z,300.00
2023-08-27T05:02:17.601Z,300.00
2023-08-27T05:03:17.609Z,300.00
2023-08-27T05:04:17.548Z,296.00
2023-08-27T05:05:17.622Z,284.00
2023-08-27T05:06:17.531Z,284.00
2023-08-27T05:07:23.879Z,288.00
2023-08-27T05:08:17.511Z,312.00
2023-08-27T05:09:17.499Z,368.00
2023-08-27T05:10:17.471Z,392.00
2023-08-27T05:11:17.515Z,408.00
2023-08-27T05:12:23.688Z,412.00
2023-08-27T05:13:17.466Z,408.00
2023-08-27T05:14:17.457Z,404.00
2023-08-27T05:15:17.442Z,444.00
2023-08-27T05:16:17.495Z,524.00
2023-08-27T05:17:23.680Z,636.00
2023-08-27T05:18:17.478Z,748.00
2023-08-27T05:19:17.363Z,828.00
2023-08-27T05:20:17.431Z,900.00
2023-08-27T05:21:17.377Z,956.00
2023-08-27T05:22:23.555Z,1000.00
2023-08-27T05:23:17.384Z,1024.00
2023-08-27T05:24:17.345Z,992.00
2023-08-27T05:25:17.274Z,980.00
2023-08-27T05:26:17.303Z,972.00
2023-08-27T05:27:23.500Z,928.00
2023-08-27T05:28:17.247Z,872.00
2023-08-27T05:29:17.228Z,836.00
2023-08-27T05:30:17.305Z,796.00
2023-08-27T05:31:17.261Z,776.00
2023-08-27T05:32:17.230Z,772.00
2023-08-27T05:33:23.431Z,792.00
2023-08-27T05:34:17.207Z,852.00
2023-08-27T05:35:17.155Z,916.00
2023-08-27T05:36:17.167Z,988.00
2023-08-27T05:37:17.130Z,1064.00
2023-08-27T05:38:17.107Z,1124.00
2023-08-27T05:39:23.366Z,1208.00
2023-08-27T05:40:17.118Z,1444.00
2023-08-27T05:41:17.144Z,1780.00
2023-08-27T05:42:17.073Z,1656.00
2023-08-27T05:43:17.103Z,1372.00
2023-08-27T05:44:17.099Z,1172.00
2023-08-27T05:45:23.313Z,1100.00
2023-08-27T05:46:17.077Z,1164.00
2023-08-27T05:47:17.027Z,1280.00
2023-08-27T05:48:17.088Z,1344.00
2023-08-27T05:49:17.039Z,1364.00
2023-08-27T05:50:16.985Z,1324.00
2023-08-27T05:51:23.226Z,1244.00
2023-08-27T05:52:16.955Z,1128.00
2023-08-27T05:53:16.984Z,988.00
2023-08-27T05:54:16.936Z,1000.00
2023-08-27T05:55:16.972Z,1120.00
2023-08-27T05:56:23.158Z,1356.00
2023-08-27T05:57:16.881Z,1552.00
2023-08-27T05:58:16.889Z,1624.00
2023-08-27T05:59:16.880Z,1756.00
2023-08-27T06:00:16.862Z,1884.00
2023-08-27T06:01:16.888Z,2040.00
2023-08-27T06:02:23.091Z,2108.00
2023-08-27T06:03:16.823Z,2064.00
2023-08-27T06:04:16.806Z,1896.00
2023-08-27T06:05:16.804Z,1728.00
2023-08-27T06:06:16.818Z,1528.00
2023-08-27T06:07:22.998Z,1432.00
2023-08-27T06:08:16.779Z,1420.00
2023-08-27T06:09:16.742Z,1444.00
2023-08-27T06:10:16.711Z,1456.00
2023-08-27T06:11:16.772Z,1540.00
2023-08-27T06:12:16.716Z,1648.00
2023-08-27T06:13:22.984Z,1744.00
2023-08-27T06:14:16.672Z,1768.00
2023-08-27T06:15:16.710Z,1768.00
2023-08-27T06:16:16.759Z,1736.00
2023-08-27T06:17:16.685Z,1704.00
2023-08-27T06:18:22.909Z,1668.00
2023-08-27T06:19:16.615Z,1724.00
2023-08-27T06:20:16.622Z,1748.00
2023-08-27T06:21:16.584Z,1744.00
2023-08-27T06:22:16.579Z,1708.00
2023-08-27T06:23:16.684Z,1736.00
2023-08-27T06:24:22.799Z,1728.00
2023-08-27T06:25:16.631Z,1864.00
2023-08-27T06:26:16.574Z,1944.00
2023-08-27T06:27:16.492Z,2004.00
2023-08-27T06:28:16.512Z,2036.00
2023-08-27T06:29:22.736Z,2036.00
2023-08-27T06:30:16.492Z,2184.00
2023-08-27T06:31:16.495Z,2288.00
2023-08-27T06:32:16.435Z,2312.00
2023-08-27T06:33:16.505Z,2488.00
2023-08-27T06:34:16.437Z,2380.00
2023-08-27T06:35:22.682Z,2464.00
2023-08-27T06:36:16.399Z,2436.00
2023-08-27T06:37:16.381Z,2372.00
2023-08-27T06:38:16.366Z,2492.00
2023-08-27T06:39:16.369Z,2560.00
2023-08-27T06:40:22.662Z,2488.00
2023-08-27T06:41:16.326Z,2392.00
2023-08-27T06:42:16.371Z,2352.00
2023-08-27T06:43:16.309Z,2408.00
2023-08-27T06:44:16.302Z,2464.00
2023-08-27T06:45:16.319Z,2424.00
2023-08-27T06:46:22.543Z,2396.00
2023-08-27T06:47:16.281Z,2520.00
2023-08-27T06:48:16.299Z,2588.00
2023-08-27T06:49:16.352Z,2748.00
2023-08-27T06:50:16.278Z,2968.00
2023-08-27T06:51:22.478Z,3188.00
2023-08-27T06:52:16.207Z,3720.00
2023-08-27T06:53:16.243Z,3368.00
2023-08-27T06:54:16.257Z,2684.00
2023-08-27T06:55:16.240Z,2640.00
2023-08-27T06:56:16.180Z,2264.00
2023-08-27T06:57:22.466Z,1972.00
2023-08-27T06:58:16.176Z,1712.00
2023-08-27T06:59:16.169Z,1592.00
2023-08-27T07:00:16.134Z,1600.00
2023-08-27T07:01:16.145Z,1676.00
2023-08-27T07:02:22.371Z,1764.00
2023-08-27T07:03:16.188Z,1804.00
2023-08-27T07:04:16.156Z,1840.00
2023-08-27T07:05:16.207Z,1932.00
2023-08-27T07:06:16.060Z,2068.00
2023-08-27T07:07:16.021Z,2136.00
2023-08-27T07:08:24.187Z,2116.00
2023-08-27T07:09:16.029Z,2088.00
2023-08-27T07:10:16.029Z,2172.00
2023-08-27T07:11:15.954Z,2292.00
2023-08-27T07:12:16.016Z,2316.00
2023-08-27T07:13:22.218Z,2368.00
2023-08-27T07:14:16.030Z,2440.00
2023-08-27T07:15:15.963Z,2592.00
2023-08-27T07:16:15.933Z,2860.00
2023-08-27T07:17:16.006Z,3200.00
2023-08-27T07:18:15.942Z,3372.00
2023-08-27T07:19:22.124Z,3412.00
2023-08-27T07:20:15.895Z,3368.00
2023-08-27T07:21:15.863Z,3300.00
2023-08-27T07:22:15.857Z,3240.00
2023-08-27T07:23:15.866Z,3112.00
2023-08-27T07:24:22.077Z,3000.00
2023-08-27T07:25:19.117Z,2888.00
2023-08-27T07:26:15.816Z,2780.00
2023-08-27T07:27:15.782Z,2664.00
2023-08-27T07:28:15.777Z,2632.00
2023-08-27T07:29:22.053Z,2692.00
2023-08-27T07:30:15.780Z,2772.00
2023-08-27T07:31:15.756Z,2932.00
2023-08-27T07:32:15.758Z,3144.00
2023-08-27T07:33:15.766Z,3376.00
2023-08-27T07:34:15.696Z,3500.00
2023-08-27T07:35:21.902Z,3572.00
2023-08-27T07:36:15.705Z,3704.00
2023-08-27T07:37:15.897Z,3756.00
2023-08-27T07:38:15.638Z,3820.00
2023-08-27T07:39:15.629Z,3832.00
2023-08-27T07:40:21.907Z,3892.00
2023-08-27T07:41:15.644Z,4024.00
2023-08-27T07:42:15.597Z,4060.00
2023-08-27T07:43:15.602Z,3980.00
2023-08-27T07:44:15.583Z,3916.00
2023-08-27T07:45:21.798Z,3960.00
2023-08-27T07:46:15.593Z,4220.00
2023-08-27T07:47:15.528Z,4364.00
2023-08-27T07:48:15.569Z,4364.00
2023-08-27T07:49:15.529Z,4260.00
2023-08-27T07:50:21.724Z,4432.00
2023-08-27T07:51:15.476Z,4516.00
2023-08-27T07:52:15.473Z,4404.00
2023-08-27T07:53:15.496Z,4276.00
2023-08-27T07:54:15.454Z,3980.00
2023-08-27T07:55:21.666Z,3912.00
2023-08-27T07:56:15.420Z,3808.00
2023-08-27T07:57:15.433Z,4028.00
2023-08-27T07:58:15.385Z,4312.00
2023-08-27T07:59:15.382Z,4640.00
2023-08-27T08:00:15.366Z,4880.00
2023-08-27T08:01:21.653Z,5756.00
2023-08-27T08:02:15.380Z,6468.00
2023-08-27T08:03:15.496Z,5148.00
2023-08-27T08:04:15.310Z,6100.00
2023-08-27T08:05:15.288Z,6928.00
2023-08-27T08:06:15.313Z,6200.00
2023-08-27T08:07:21.574Z,5716.00
2023-08-27T08:08:15.279Z,5384.00
2023-08-27T08:09:15.259Z,5184.00
2023-08-27T08:10:15.267Z,5192.00
2023-08-27T08:11:15.241Z,5232.00
2023-08-27T08:12:21.522Z,5188.00
2023-08-27T08:13:15.188Z,4944.00
2023-08-27T08:14:15.167Z,5036.00
2023-08-27T08:15:15.211Z,5380.00
2023-08-27T08:16:15.179Z,5100.00
2023-08-27T08:17:15.131Z,5204.00
2023-08-27T08:18:21.444Z,5096.00
2023-08-27T08:19:15.156Z,4656.00
2023-08-27T08:20:15.145Z,4452.00
2023-08-27T08:21:15.145Z,4608.00
2023-08-27T08:22:15.075Z,4468.00
2023-08-27T08:23:15.113Z,4152.00
2023-08-27T08:24:21.302Z,3756.00
2023-08-27T08:25:15.087Z,3740.00
2023-08-27T08:26:15.094Z,3928.00
2023-08-27T08:27:15.072Z,4088.00
2023-08-27T08:28:15.028Z,4068.00
2023-08-27T08:29:21.213Z,4040.00
2023-08-27T08:30:14.959Z,4180.00
2023-08-27T08:31:14.978Z,4216.00
2023-08-27T08:32:14.966Z,4072.00
2023-08-27T08:33:15.018Z,4080.00
2023-08-27T08:34:21.248Z,4216.00
2023-08-27T08:35:14.920Z,4224.00
2023-08-27T08:36:14.961Z,4020.00
2023-08-27T08:37:14.873Z,3904.00
2023-08-27T08:38:14.900Z,3752.00
2023-08-27T08:39:21.086Z,3612.00
2023-08-27T08:40:14.895Z,3468.00
2023-08-27T08:41:14.843Z,3436.00
2023-08-27T08:42:14.825Z,3412.00
2023-08-27T08:43:14.846Z,3364.00
2023-08-27T08:44:14.882Z,3228.00
2023-08-27T08:45:21.047Z,3056.00
2023-08-27T08:46:14.864Z,3000.00
2023-08-27T08:47:14.774Z,3180.00
2023-08-27T08:48:14.828Z,3584.00
2023-08-27T08:49:14.790Z,3912.00
2023-08-27T08:50:20.971Z,3428.00
2023-08-27T08:51:14.774Z,3044.00
2023-08-27T08:52:14.693Z,3000.00
2023-08-27T08:53:14.727Z,3068.00
2023-08-27T08:54:14.699Z,2996.00
2023-08-27T08:55:20.918Z,2924.00
2023-08-27T08:56:14.741Z,3044.00
2023-08-27T08:57:14.651Z,3332.00
2023-08-27T08:58:14.704Z,3664.00
2023-08-27T08:59:14.655Z,3852.00
2023-08-27T09:00:20.871Z,3820.00
2023-08-27T09:01:14.814Z,3756.00
2023-08-27T09:02:14.690Z,3764.00
2023-08-27T09:03:14.659Z,3860.00
2023-08-27T09:04:14.541Z,4012.00
2023-08-27T09:05:20.844Z,4192.00
2023-08-27T09:06:14.750Z,4352.00
2023-08-27T09:07:14.488Z,4544.00
2023-08-27T09:08:14.502Z,4860.00
2023-08-27T09:09:14.552Z,5008.00
2023-08-27T09:10:14.511Z,4880.00
2023-08-27T09:11:20.801Z,4772.00
2023-08-27T09:12:14.452Z,4808.00
2023-08-27T09:13:14.445Z,4992.00
2023-08-27T09:14:14.414Z,5160.00
2023-08-27T09:15:14.482Z,5108.00
2023-08-27T09:16:14.440Z,5020.00
2023-08-27T09:17:20.634Z,4868.00
2023-08-27T09:18:14.500Z,4508.00
2023-08-27T09:19:14.381Z,4008.00
2023-08-27T09:20:14.382Z,3468.00
2023-08-27T09:21:14.322Z,3008.00
2023-08-27T09:22:20.620Z,2836.00
2023-08-27T09:23:14.365Z,2896.00
2023-08-27T09:24:14.283Z,2964.00
2023-08-27T09:25:14.340Z,3116.00
2023-08-27T09:26:14.299Z,3348.00
2023-08-27T09:27:20.513Z,3572.00
2023-08-27T09:28:14.229Z,3896.00
2023-08-27T09:29:14.231Z,4188.00
2023-08-27T09:30:14.224Z,4424.00
2023-08-27T09:31:14.201Z,4736.00
2023-08-27T09:32:20.449Z,5052.00
2023-08-27T09:33:14.248Z,4968.00
2023-08-27T09:34:14.214Z,4900.00
2023-08-27T09:35:14.160Z,4916.00
2023-08-27T09:36:14.137Z,4792.00
2023-08-27T09:37:14.160Z,4704.00
2023-08-27T09:38:20.368Z,4828.00
2023-08-27T09:39:14.114Z,5000.00
2023-08-27T09:40:14.173Z,5040.00
2023-08-27T09:41:14.083Z,4864.00
2023-08-27T09:42:14.077Z,4688.00
2023-08-27T09:43:14.070Z,4532.00
2023-08-27T09:44:20.281Z,4380.00
2023-08-27T09:45:14.035Z,4308.00
2023-08-27T09:46:14.051Z,4328.00
2023-08-27T09:47:14.004Z,4872.00
2023-08-27T09:48:14.050Z,5204.00
2023-08-27T09:49:13.990Z,5772.00
2023-08-27T09:50:20.261Z,6532.00
2023-08-27T09:51:13.950Z,6860.00
2023-08-27T09:52:13.946Z,6660.00
2023-08-27T09:53:14.063Z,5132.00
2023-08-27T09:54:13.940Z,4836.00
2023-08-27T09:55:20.218Z,6300.00
2023-08-27T09:56:13.898Z,6024.00
2023-08-27T09:57:13.940Z,5272.00
2023-08-27T09:58:13.883Z,5464.00
2023-08-27T09:59:13.843Z,5980.00
2023-08-27T10:00:13.910Z,6516.00
2023-08-27T10:01:20.130Z,6872.00
2023-08-27T10:02:13.836Z,6888.00
2023-08-27T10:03:13.925Z,7328.00
2023-08-27T10:04:13.796Z,7600.00
2023-08-27T10:05:16.270Z,7936.00
2023-08-27T10:06:19.983Z,7484.00
2023-08-27T10:07:13.805Z,6848.00
2023-08-27T10:08:13.783Z,7100.00
2023-08-27T10:09:13.731Z,7548.00
2023-08-27T10:10:13.740Z,7936.00
2023-08-27T10:11:13.706Z,7328.00
2023-08-27T10:12:19.980Z,7232.00
2023-08-27T10:13:13.745Z,7232.00
2023-08-27T10:14:13.674Z,7148.00
2023-08-27T10:15:13.720Z,7400.00
2023-08-27T10:16:13.749Z,8252.00
2023-08-27T10:17:13.669Z,7912.00
2023-08-27T10:18:19.909Z,6332.00
2023-08-27T10:19:13.639Z,6184.00
2023-08-27T10:20:13.636Z,5908.00
2023-08-27T10:21:13.569Z,5540.00
2023-08-27T10:22:13.579Z,5864.00
2023-08-27T10:23:19.837Z,5844.00
2023-08-27T10:24:13.586Z,5860.00
2023-08-27T10:25:13.549Z,6044.00
2023-08-27T10:26:13.564Z,5648.00
2023-08-27T10:27:13.526Z,5744.00
2023-08-27T10:28:13.511Z,5692.00
2023-08-27T10:29:19.754Z,5336.00
2023-08-27T10:30:13.501Z,5012.00
2023-08-27T10:31:13.550Z,4848.00
2023-08-27T10:32:13.434Z,5080.00
2023-08-27T10:33:13.481Z,5324.00
2023-08-27T10:34:13.456Z,5172.00
2023-08-27T10:35:19.640Z,4700.00
2023-08-27T10:36:13.426Z,4228.00
2023-08-27T10:37:13.398Z,3768.00
2023-08-27T10:38:13.350Z,3468.00
2023-08-27T10:39:13.376Z,3652.00
2023-08-27T10:40:19.545Z,3936.00
2023-08-27T10:41:13.343Z,4144.00
2023-08-27T10:42:13.359Z,4320.00
2023-08-27T10:43:13.305Z,4748.00
2023-08-27T10:44:13.315Z,5172.00
2023-08-27T10:45:13.282Z,5464.00
2023-08-27T10:46:21.966Z,5496.00
2023-08-27T10:47:13.227Z,5816.00
2023-08-27T10:48:13.297Z,6204.00
2023-08-27T10:49:13.438Z,5656.00
2023-08-27T10:50:13.223Z,5320.00
2023-08-27T10:51:19.487Z,5128.00
2023-08-27T10:52:13.203Z,4788.00
2023-08-27T10:53:13.192Z,4600.00
2023-08-27T10:54:13.171Z,4428.00
2023-08-27T10:55:13.197Z,4324.00
2023-08-27T10:56:13.130Z,4056.00
2023-08-27T10:57:19.498Z,3656.00
2023-08-27T10:58:13.143Z,3620.00
2023-08-27T10:59:13.125Z,3928.00
2023-08-27T11:00:13.080Z,4184.00
2023-08-27T11:01:13.118Z,4396.00
2023-08-27T11:02:13.157Z,4376.00
2023-08-27T11:03:19.388Z,4280.00
2023-08-27T11:04:13.094Z,4132.00
2023-08-27T11:05:13.058Z,3984.00
2023-08-27T11:06:13.023Z,4248.00
2023-08-27T11:07:13.087Z,4544.00
2023-08-27T11:08:19.337Z,4776.00
2023-08-27T11:09:17.566Z,4852.00
2023-08-27T11:10:14.497Z,5156.00
2023-08-27T11:11:12.983Z,4860.00
2023-08-27T11:12:12.985Z,4480.00
2023-08-27T11:13:12.967Z,4380.00
2023-08-27T11:14:20.248Z,4552.00
2023-08-27T11:15:12.958Z,4784.00
2023-08-27T11:16:12.922Z,4652.00
2023-08-27T11:17:12.924Z,4328.00
2023-08-27T11:18:12.920Z,4084.00
2023-08-27T11:19:19.112Z,3824.00
2023-08-27T11:20:13.005Z,3528.00
2023-08-27T11:21:12.817Z,3580.00
2023-08-27T11:22:13.006Z,3728.00
2023-08-27T11:23:12.877Z,3680.00
2023-08-27T11:25:11.706Z,3084.00
2023-08-27T11:26:11.692Z,2920.00
2023-08-27T11:27:11.677Z,2972.00
2023-08-27T11:28:11.723Z,3108.00
2023-08-27T11:29:17.930Z,2944.00
2023-08-27T11:30:11.630Z,2920.00
2023-08-27T11:31:11.678Z,3236.00
2023-08-27T11:32:11.654Z,3980.00
2023-08-27T11:33:11.631Z,4948.00
2023-08-27T11:34:17.815Z,5080.00
2023-08-27T11:35:11.585Z,4480.00
2023-08-27T11:36:11.612Z,4012.00
2023-08-27T11:37:11.589Z,3732.00
2023-08-27T11:38:11.576Z,3624.00
2023-08-27T11:39:11.495Z,3536.00
2023-08-27T11:40:17.761Z,3432.00
2023-08-27T11:41:11.483Z,3416.00
2023-08-27T11:42:11.509Z,3536.00
2023-08-27T11:43:11.576Z,3500.00
2023-08-27T11:44:11.538Z,3216.00
2023-08-27T11:45:17.684Z,3096.00
2023-08-27T11:46:11.511Z,3016.00
2023-08-27T11:47:11.465Z,3080.00
2023-08-27T11:48:11.475Z,3256.00
2023-08-27T11:49:11.379Z,3312.00
2023-08-27T11:50:17.651Z,3268.00
2023-08-27T11:51:11.352Z,3308.00
2023-08-27T11:52:11.360Z,3376.00
2023-08-27T11:53:11.359Z,3364.00
2023-08-27T11:54:11.448Z,3316.00
2023-08-27T11:55:11.320Z,3244.00
2023-08-27T11:56:17.540Z,3160.00
2023-08-27T11:57:11.273Z,3212.00
2023-08-27T11:58:11.284Z,3188.00
2023-08-27T11:59:11.267Z,3232.00
2023-08-27T12:00:11.260Z,3176.00
2023-08-27T12:01:17.530Z,3168.00
2023-08-27T12:02:11.227Z,3204.00
2023-08-27T12:03:11.253Z,3312.00
2023-08-27T12:04:11.221Z,3828.00
2023-08-27T12:05:11.198Z,4616.00
2023-08-27T12:06:17.412Z,4872.00
2023-08-27T12:07:11.220Z,4632.00
2023-08-27T12:08:11.169Z,4324.00
2023-08-27T12:09:11.173Z,4228.00
2023-08-27T12:10:11.157Z,4296.00
2023-08-27T12:11:17.330Z,4256.00
2023-08-27T12:12:11.112Z,4024.00
2023-08-27T12:13:11.083Z,4012.00
2023-08-27T12:14:11.094Z,4100.00
2023-08-27T12:15:11.046Z,4176.00
2023-08-27T12:16:11.075Z,4032.00
2023-08-27T12:17:17.266Z,3828.00
2023-08-27T12:18:11.061Z,3636.00
2023-08-27T12:19:11.041Z,3644.00
2023-08-27T12:20:10.964Z,3668.00
2023-08-27T12:21:10.984Z,3740.00
2023-08-27T12:22:17.217Z,3832.00
2023-08-27T12:23:10.950Z,3792.00
2023-08-27T12:24:10.978Z,3604.00
2023-08-27T12:25:10.953Z,3352.00
2023-08-27T12:26:10.953Z,3040.00
2023-08-27T12:27:17.131Z,2740.00
2023-08-27T12:28:10.897Z,2500.00
2023-08-27T12:29:10.858Z,2364.00
2023-08-27T12:30:10.890Z,2300.00
2023-08-27T12:31:10.912Z,2320.00
2023-08-27T12:32:17.081Z,2232.00